sensor_id;sensor_type;location;lat;lon;timestamp;temperature;humidity
774;DHT22;370;48.810;9.150;2022-07-29T00:00:10;21.10;21.30
774;DHT22;370;48.810;9.150;2022-07-29T00:02:37;21.10;21.30
774;DHT22;370;48.810;9.150;2022-07-29T00:05:04;21.10;21.30
774;DHT22;370;48.810;9.150;2022-07-29T00:07:31;21.10;21.40
774;DHT22;370;48.810;9.150;2022-07-29T00:09:58;21.00;21.30
774;DHT22;370;48.810;9.150;2022-07-29T00:12:25;21.00;21.30
774;DHT22;370;48.810;9.150;2022-07-29T00:14:54;21.00;21.30
774;DHT22;370;48.810;9.150;2022-07-29T00:17:21;20.90;21.20
774;DHT22;370;48.810;9.150;2022-07-29T00:19:48;21.00;21.30
774;DHT22;370;48.810;9.150;2022-07-29T00:22:15;20.90;21.50
774;DHT22;370;48.810;9.150;2022-07-29T00:24:41;20.80;22.20
774;DHT22;370;48.810;9.150;2022-07-29T00:27:08;20.80;23.00
774;DHT22;370;48.810;9.150;2022-07-29T00:29:35;20.80;23.20
774;DHT22;370;48.810;9.150;2022-07-29T00:32:03;20.80;23.10
774;DHT22;370;48.810;9.150;2022-07-29T00:34:30;20.80;23.40
774;DHT22;370;48.810;9.150;2022-07-29T00:37:14;20.80;23.30
774;DHT22;370;48.810;9.150;2022-07-29T00:39:41;21.00;22.60
774;DHT22;370;48.810;9.150;2022-07-29T00:42:08;20.90;23.20
774;DHT22;370;48.810;9.150;2022-07-29T00:44:38;20.90;22.60
774;DHT22;370;48.810;9.150;2022-07-29T00:47:07;21.00;22.60
774;DHT22;370;48.810;9.150;2022-07-29T00:49:34;20.80;24.00
774;DHT22;370;48.810;9.150;2022-07-29T00:52:01;20.60;25.00
774;DHT22;370;48.810;9.150;2022-07-29T00:54:28;20.70;24.90
774;DHT22;370;48.810;9.150;2022-07-29T00:56:56;20.80;24.60
774;DHT22;370;48.810;9.150;2022-07-29T00:59:24;20.90;24.50
774;DHT22;370;48.810;9.150;2022-07-29T01:01:51;21.00;23.60
774;DHT22;370;48.810;9.150;2022-07-29T01:04:19;21.10;22.90
774;DHT22;370;48.810;9.150;2022-07-29T01:06:47;21.00;23.20
774;DHT22;370;48.810;9.150;2022-07-29T01:09:14;21.00;22.60
774;DHT22;370;48.810;9.150;2022-07-29T01:11:42;20.80;23.60
774;DHT22;370;48.810;9.150;2022-07-29T01:14:10;20.80;23.00
774;DHT22;370;48.810;9.150;2022-07-29T01:16:42;20.80;23.40
774;DHT22;370;48.810;9.150;2022-07-29T01:19:27;20.80;23.10
774;DHT22;370;48.810;9.150;2022-07-29T01:22:07;20.80;23.10
774;DHT22;370;48.810;9.150;2022-07-29T01:24:52;20.80;22.40
774;DHT22;370;48.810;9.150;2022-07-29T01:27:38;20.70;22.80
774;DHT22;370;48.810;9.150;2022-07-29T01:30:09;20.70;23.00
774;DHT22;370;48.810;9.150;2022-07-29T01:32:37;20.70;22.50
774;DHT22;370;48.810;9.150;2022-07-29T01:35:10;20.70;22.40
774;DHT22;370;48.810;9.150;2022-07-29T01:37:43;20.60;22.80
774;DHT22;370;48.810;9.150;2022-07-29T01:40:17;20.50;22.90
774;DHT22;370;48.810;9.150;2022-07-29T01:42:51;20.50;23.10
774;DHT22;370;48.810;9.150;2022-07-29T01:45:23;20.40;23.60
774;DHT22;370;48.810;9.150;2022-07-29T01:47:56;20.50;23.30
774;DHT22;370;48.810;9.150;2022-07-29T01:50:29;20.50;23.50
774;DHT22;370;48.810;9.150;2022-07-29T01:52:59;20.50;23.30
774;DHT22;370;48.810;9.150;2022-07-29T01:55:28;20.50;22.80
774;DHT22;370;48.810;9.150;2022-07-29T01:57:56;20.60;22.60
774;DHT22;370;48.810;9.150;2022-07-29T02:00:26;20.60;22.10
774;DHT22;370;48.810;9.150;2022-07-29T02:02:54;20.60;21.80
774;DHT22;370;48.810;9.150;2022-07-29T02:05:22;20.70;21.10
774;DHT22;370;48.810;9.150;2022-07-29T02:07:51;20.60;21.30
774;DHT22;370;48.810;9.150;2022-07-29T02:10:22;20.60;21.90
774;DHT22;370;48.810;9.150;2022-07-29T02:12:50;20.70;21.50
774;DHT22;370;48.810;9.150;2022-07-29T02:15:18;20.50;21.80
774;DHT22;370;48.810;9.150;2022-07-29T02:17:52;20.30;23.30
774;DHT22;370;48.810;9.150;2022-07-29T02:20:22;20.00;25.60
774;DHT22;370;48.810;9.150;2022-07-29T02:22:50;19.90;26.30
774;DHT22;370;48.810;9.150;2022-07-29T02:25:17;19.90;26.60
774;DHT22;370;48.810;9.150;2022-07-29T02:27:44;19.80;26.40
774;DHT22;370;48.810;9.150;2022-07-29T02:30:12;19.70;26.80
774;DHT22;370;48.810;9.150;2022-07-29T02:32:41;19.80;26.90
774;DHT22;370;48.810;9.150;2022-07-29T02:35:09;19.90;26.10
774;DHT22;370;48.810;9.150;2022-07-29T02:37:39;20.00;25.40
774;DHT22;370;48.810;9.150;2022-07-29T02:40:09;19.90;26.20
774;DHT22;370;48.810;9.150;2022-07-29T02:42:37;19.70;26.70
774;DHT22;370;48.810;9.150;2022-07-29T02:45:06;19.60;28.40
774;DHT22;370;48.810;9.150;2022-07-29T02:47:36;19.80;27.80
774;DHT22;370;48.810;9.150;2022-07-29T02:50:11;19.80;26.70
774;DHT22;370;48.810;9.150;2022-07-29T02:52:41;19.80;26.90
774;DHT22;370;48.810;9.150;2022-07-29T02:55:15;19.80;27.30
774;DHT22;370;48.810;9.150;2022-07-29T02:57:44;20.00;26.20
774;DHT22;370;48.810;9.150;2022-07-29T03:00:14;20.10;25.40
774;DHT22;370;48.810;9.150;2022-07-29T03:02:44;20.10;24.30
774;DHT22;370;48.810;9.150;2022-07-29T03:05:17;19.90;25.50
774;DHT22;370;48.810;9.150;2022-07-29T03:07:46;20.00;25.40
774;DHT22;370;48.810;9.150;2022-07-29T03:10:13;19.80;25.70
774;DHT22;370;48.810;9.150;2022-07-29T03:12:41;19.80;26.20
774;DHT22;370;48.810;9.150;2022-07-29T03:15:09;19.90;26.20
774;DHT22;370;48.810;9.150;2022-07-29T03:17:37;20.00;24.60
774;DHT22;370;48.810;9.150;2022-07-29T03:20:05;20.00;24.90
774;DHT22;370;48.810;9.150;2022-07-29T03:22:39;20.10;24.70
774;DHT22;370;48.810;9.150;2022-07-29T03:25:09;20.20;23.90
774;DHT22;370;48.810;9.150;2022-07-29T03:27:36;20.30;23.20
774;DHT22;370;48.810;9.150;2022-07-29T03:30:03;20.40;22.60
774;DHT22;370;48.810;9.150;2022-07-29T03:32:30;20.50;22.40
774;DHT22;370;48.810;9.150;2022-07-29T03:34:57;20.50;22.40
774;DHT22;370;48.810;9.150;2022-07-29T03:37:23;20.40;22.70
774;DHT22;370;48.810;9.150;2022-07-29T03:39:52;20.40;23.10
774;DHT22;370;48.810;9.150;2022-07-29T03:42:23;20.40;22.90
774;DHT22;370;48.810;9.150;2022-07-29T03:44:51;20.50;22.10
774;DHT22;370;48.810;9.150;2022-07-29T03:47:22;20.50;21.70
774;DHT22;370;48.810;9.150;2022-07-29T03:49:52;20.40;22.40
774;DHT22;370;48.810;9.150;2022-07-29T03:52:20;20.50;21.90
774;DHT22;370;48.810;9.150;2022-07-29T03:54:47;20.50;21.20
774;DHT22;370;48.810;9.150;2022-07-29T03:57:16;20.60;21.00
774;DHT22;370;48.810;9.150;2022-07-29T03:59:45;20.70;21.10
774;DHT22;370;48.810;9.150;2022-07-29T04:02:13;20.80;19.90
774;DHT22;370;48.810;9.150;2022-07-29T04:04:40;20.80;20.50
774;DHT22;370;48.810;9.150;2022-07-29T04:07:06;20.80;20.40
774;DHT22;370;48.810;9.150;2022-07-29T04:09:33;20.30;21.40
774;DHT22;370;48.810;9.150;2022-07-29T04:12:00;20.10;23.80
774;DHT22;370;48.810;9.150;2022-07-29T04:14:29;19.80;25.30
774;DHT22;370;48.810;9.150;2022-07-29T04:16:56;19.50;27.20
774;DHT22;370;48.810;9.150;2022-07-29T04:19:22;19.40;28.70
774;DHT22;370;48.810;9.150;2022-07-29T04:21:49;19.70;27.80
774;DHT22;370;48.810;9.150;2022-07-29T04:24:16;19.60;27.60
774;DHT22;370;48.810;9.150;2022-07-29T04:26:44;19.60;27.60
774;DHT22;370;48.810;9.150;2022-07-29T04:29:11;19.60;27.80
774;DHT22;370;48.810;9.150;2022-07-29T04:31:41;19.70;27.30
774;DHT22;370;48.810;9.150;2022-07-29T04:34:07;19.40;28.70
774;DHT22;370;48.810;9.150;2022-07-29T04:36:34;19.40;29.60
774;DHT22;370;48.810;9.150;2022-07-29T04:39:01;19.60;28.80
774;DHT22;370;48.810;9.150;2022-07-29T04:41:28;19.60;28.80
774;DHT22;370;48.810;9.150;2022-07-29T04:43:56;19.70;27.80
774;DHT22;370;48.810;9.150;2022-07-29T04:46:22;19.50;28.80
774;DHT22;370;48.810;9.150;2022-07-29T04:48:50;19.40;28.70
774;DHT22;370;48.810;9.150;2022-07-29T04:51:17;19.30;29.20
774;DHT22;370;48.810;9.150;2022-07-29T04:53:44;19.30;28.60
774;DHT22;370;48.810;9.150;2022-07-29T04:56:11;19.50;28.70
774;DHT22;370;48.810;9.150;2022-07-29T04:58:37;19.70;26.70
774;DHT22;370;48.810;9.150;2022-07-29T05:01:04;19.80;26.00
774;DHT22;370;48.810;9.150;2022-07-29T05:03:31;19.80;25.50
774;DHT22;370;48.810;9.150;2022-07-29T05:05:59;19.90;26.00
774;DHT22;370;48.810;9.150;2022-07-29T05:08:25;20.30;22.90
774;DHT22;370;48.810;9.150;2022-07-29T05:10:52;20.60;21.00
774;DHT22;370;48.810;9.150;2022-07-29T05:13:19;20.90;20.20
774;DHT22;370;48.810;9.150;2022-07-29T05:15:46;20.70;19.70
774;DHT22;370;48.810;9.150;2022-07-29T05:18:12;20.90;20.60
774;DHT22;370;48.810;9.150;2022-07-29T05:20:39;21.00;18.00
774;DHT22;370;48.810;9.150;2022-07-29T05:23:07;20.60;20.00
774;DHT22;370;48.810;9.150;2022-07-29T05:25:34;20.50;20.90
774;DHT22;370;48.810;9.150;2022-07-29T05:28:01;20.40;20.90
774;DHT22;370;48.810;9.150;2022-07-29T05:30:28;20.50;20.90
774;DHT22;370;48.810;9.150;2022-07-29T05:32:54;20.60;21.00
774;DHT22;370;48.810;9.150;2022-07-29T05:35:21;20.70;20.00
774;DHT22;370;48.810;9.150;2022-07-29T05:37:48;20.60;20.40
774;DHT22;370;48.810;9.150;2022-07-29T05:40:16;20.60;19.70
774;DHT22;370;48.810;9.150;2022-07-29T05:42:42;20.60;21.00
774;DHT22;370;48.810;9.150;2022-07-29T05:45:10;20.70;19.60
774;DHT22;370;48.810;9.150;2022-07-29T05:47:38;20.80;19.10
774;DHT22;370;48.810;9.150;2022-07-29T05:50:05;21.10;18.00
774;DHT22;370;48.810;9.150;2022-07-29T05:52:32;21.30;16.90
774;DHT22;370;48.810;9.150;2022-07-29T05:54:59;21.50;16.00
774;DHT22;370;48.810;9.150;2022-07-29T05:57:29;21.70;15.40
774;DHT22;370;48.810;9.150;2022-07-29T05:59:56;21.90;13.10
774;DHT22;370;48.810;9.150;2022-07-29T06:02:23;22.00;13.20
774;DHT22;370;48.810;9.150;2022-07-29T06:04:49;22.20;12.80
774;DHT22;370;48.810;9.150;2022-07-29T06:07:16;22.60;11.60
774;DHT22;370;48.810;9.150;2022-07-29T06:09:43;22.60;10.70
774;DHT22;370;48.810;9.150;2022-07-29T06:12:10;23.00;9.70
774;DHT22;370;48.810;9.150;2022-07-29T06:14:38;23.10;8.40
774;DHT22;370;48.810;9.150;2022-07-29T06:17:04;23.20;8.10
774;DHT22;370;48.810;9.150;2022-07-29T06:19:34;23.30;7.80
774;DHT22;370;48.810;9.150;2022-07-29T06:22:00;23.70;6.30
774;DHT22;370;48.810;9.150;2022-07-29T06:24:27;24.10;5.50
774;DHT22;370;48.810;9.150;2022-07-29T06:26:54;24.50;5.40
774;DHT22;370;48.810;9.150;2022-07-29T06:29:21;24.80;3.20
774;DHT22;370;48.810;9.150;2022-07-29T06:31:49;25.20;2.30
774;DHT22;370;48.810;9.150;2022-07-29T06:34:15;25.40;1.80
774;DHT22;370;48.810;9.150;2022-07-29T06:36:42;25.60;1.00
774;DHT22;370;48.810;9.150;2022-07-29T06:39:09;25.70;1.00
774;DHT22;370;48.810;9.150;2022-07-29T06:41:36;25.80;1.00
774;DHT22;370;48.810;9.150;2022-07-29T06:44:03;26.00;1.00
774;DHT22;370;48.810;9.150;2022-07-29T06:46:30;26.10;1.00
774;DHT22;370;48.810;9.150;2022-07-29T06:48:58;26.20;1.00
774;DHT22;370;48.810;9.150;2022-07-29T06:51:26;26.30;1.00
774;DHT22;370;48.810;9.150;2022-07-29T06:53:53;26.40;1.00
774;DHT22;370;48.810;9.150;2022-07-29T06:56:20;26.40;1.00
774;DHT22;370;48.810;9.150;2022-07-29T06:58:47;26.50;1.00
774;DHT22;370;48.810;9.150;2022-07-29T07:01:14;26.50;1.00
774;DHT22;370;48.810;9.150;2022-07-29T07:03:40;26.60;1.00
774;DHT22;370;48.810;9.150;2022-07-29T07:06:08;26.70;1.00
774;DHT22;370;48.810;9.150;2022-07-29T07:08:35;26.90;1.00
774;DHT22;370;48.810;9.150;2022-07-29T07:11:02;27.20;1.00
774;DHT22;370;48.810;9.150;2022-07-29T07:13:29;27.40;1.00
774;DHT22;370;48.810;9.150;2022-07-29T07:15:59;27.60;1.00
774;DHT22;370;48.810;9.150;2022-07-29T07:18:26;27.70;1.00
774;DHT22;370;48.810;9.150;2022-07-29T07:20:53;27.80;1.00
774;DHT22;370;48.810;9.150;2022-07-29T07:23:21;27.90;1.00
774;DHT22;370;48.810;9.150;2022-07-29T07:25:48;28.00;1.00
774;DHT22;370;48.810;9.150;2022-07-29T07:28:14;28.10;1.00
774;DHT22;370;48.810;9.150;2022-07-29T07:30:41;28.20;1.00
774;DHT22;370;48.810;9.150;2022-07-29T07:33:09;28.20;1.00
774;DHT22;370;48.810;9.150;2022-07-29T07:35:35;28.20;1.00
774;DHT22;370;48.810;9.150;2022-07-29T07:38:02;28.10;1.00
774;DHT22;370;48.810;9.150;2022-07-29T07:40:32;28.10;1.00
774;DHT22;370;48.810;9.150;2022-07-29T07:42:59;28.00;1.00
774;DHT22;370;48.810;9.150;2022-07-29T07:45:26;28.00;1.00
774;DHT22;370;48.810;9.150;2022-07-29T07:47:53;28.20;1.00
774;DHT22;370;48.810;9.150;2022-07-29T07:50:19;28.40;1.00
774;DHT22;370;48.810;9.150;2022-07-29T07:52:47;28.50;1.00
774;DHT22;370;48.810;9.150;2022-07-29T07:55:15;28.80;1.00
774;DHT22;370;48.810;9.150;2022-07-29T07:57:43;28.10;1.00
774;DHT22;370;48.810;9.150;2022-07-29T08:00:11;28.50;1.00
774;DHT22;370;48.810;9.150;2022-07-29T08:02:38;28.80;1.00
774;DHT22;370;48.810;9.150;2022-07-29T08:05:06;29.00;1.00
774;DHT22;370;48.810;9.150;2022-07-29T08:07:33;29.10;1.00
774;DHT22;370;48.810;9.150;2022-07-29T08:10:00;29.50;1.00
774;DHT22;370;48.810;9.150;2022-07-29T08:12:27;29.50;1.00
774;DHT22;370;48.810;9.150;2022-07-29T08:14:55;30.10;1.00
774;DHT22;370;48.810;9.150;2022-07-29T08:20:35;30.80;1.00
774;DHT22;370;48.810;9.150;2022-07-29T08:23:04;30.70;1.00
774;DHT22;370;48.810;9.150;2022-07-29T08:25:32;31.10;1.00
774;DHT22;370;48.810;9.150;2022-07-29T08:27:59;31.30;1.00
774;DHT22;370;48.810;9.150;2022-07-29T08:30:27;31.10;1.00
774;DHT22;370;48.810;9.150;2022-07-29T08:32:54;31.10;1.00
774;DHT22;370;48.810;9.150;2022-07-29T08:35:21;31.50;1.00
774;DHT22;370;48.810;9.150;2022-07-29T08:37:48;31.70;1.00
774;DHT22;370;48.810;9.150;2022-07-29T08:40:14;31.80;1.00
774;DHT22;370;48.810;9.150;2022-07-29T08:42:41;32.00;1.00
774;DHT22;370;48.810;9.150;2022-07-29T08:45:09;32.30;1.00
774;DHT22;370;48.810;9.150;2022-07-29T08:47:38;32.40;1.00
774;DHT22;370;48.810;9.150;2022-07-29T08:50:06;32.40;1.00
774;DHT22;370;48.810;9.150;2022-07-29T08:52:36;32.10;1.00
774;DHT22;370;48.810;9.150;2022-07-29T08:55:04;32.10;1.00
774;DHT22;370;48.810;9.150;2022-07-29T08:57:33;32.60;1.00
774;DHT22;370;48.810;9.150;2022-07-29T09:00:00;33.00;1.00
774;DHT22;370;48.810;9.150;2022-07-29T09:02:29;33.60;1.00
774;DHT22;370;48.810;9.150;2022-07-29T09:05:02;34.00;1.00
774;DHT22;370;48.810;9.150;2022-07-29T09:07:28;34.20;1.00
774;DHT22;370;48.810;9.150;2022-07-29T09:09:55;34.20;1.00
774;DHT22;370;48.810;9.150;2022-07-29T09:12:22;34.60;1.00
774;DHT22;370;48.810;9.150;2022-07-29T09:14:50;35.40;1.00
774;DHT22;370;48.810;9.150;2022-07-29T09:17:17;35.80;1.00
774;DHT22;370;48.810;9.150;2022-07-29T09:19:45;36.30;1.00
774;DHT22;370;48.810;9.150;2022-07-29T09:22:28;35.80;1.00
774;DHT22;370;48.810;9.150;2022-07-29T09:24:55;35.40;1.00
774;DHT22;370;48.810;9.150;2022-07-29T09:27:24;35.40;1.00
774;DHT22;370;48.810;9.150;2022-07-29T09:29:59;35.60;1.00
774;DHT22;370;48.810;9.150;2022-07-29T09:32:26;34.70;1.00
774;DHT22;370;48.810;9.150;2022-07-29T09:35:14;34.90;1.00
774;DHT22;370;48.810;9.150;2022-07-29T09:37:43;35.50;1.00
774;DHT22;370;48.810;9.150;2022-07-29T09:40:14;36.40;1.00
774;DHT22;370;48.810;9.150;2022-07-29T09:42:42;37.00;1.00
774;DHT22;370;48.810;9.150;2022-07-29T09:45:09;37.40;1.00
774;DHT22;370;48.810;9.150;2022-07-29T09:47:45;37.70;1.00
774;DHT22;370;48.810;9.150;2022-07-29T09:50:14;38.30;1.00
774;DHT22;370;48.810;9.150;2022-07-29T09:52:48;39.00;1.00
774;DHT22;370;48.810;9.150;2022-07-29T09:55:15;38.90;1.00
774;DHT22;370;48.810;9.150;2022-07-29T09:57:43;38.50;1.00
774;DHT22;370;48.810;9.150;2022-07-29T10:00:12;38.40;1.00
774;DHT22;370;48.810;9.150;2022-07-29T10:02:41;37.70;1.00
774;DHT22;370;48.810;9.150;2022-07-29T10:05:18;36.90;1.00
774;DHT22;370;48.810;9.150;2022-07-29T10:07:48;36.10;1.00
774;DHT22;370;48.810;9.150;2022-07-29T10:10:19;35.40;1.00
774;DHT22;370;48.810;9.150;2022-07-29T10:12:53;34.30;1.00
774;DHT22;370;48.810;9.150;2022-07-29T10:15:22;33.00;1.00
774;DHT22;370;48.810;9.150;2022-07-29T10:17:49;32.00;1.00
774;DHT22;370;48.810;9.150;2022-07-29T10:20:17;31.50;1.00
774;DHT22;370;48.810;9.150;2022-07-29T10:22:44;31.10;1.00
774;DHT22;370;48.810;9.150;2022-07-29T10:25:14;30.50;1.00
774;DHT22;370;48.810;9.150;2022-07-29T10:27:41;30.10;1.00
774;DHT22;370;48.810;9.150;2022-07-29T10:30:09;29.80;1.00
774;DHT22;370;48.810;9.150;2022-07-29T10:32:50;29.30;1.00
774;DHT22;370;48.810;9.150;2022-07-29T10:35:40;29.00;1.00
774;DHT22;370;48.810;9.150;2022-07-29T10:38:35;28.60;1.00
774;DHT22;370;48.810;9.150;2022-07-29T10:41:17;28.30;1.00
774;DHT22;370;48.810;9.150;2022-07-29T10:43:57;28.00;1.00
774;DHT22;370;48.810;9.150;2022-07-29T10:46:25;27.70;1.00
774;DHT22;370;48.810;9.150;2022-07-29T10:49:08;27.50;1.00
774;DHT22;370;48.810;9.150;2022-07-29T10:51:52;27.40;1.00
774;DHT22;370;48.810;9.150;2022-07-29T10:54:37;27.30;1.00
774;DHT22;370;48.810;9.150;2022-07-29T10:57:20;27.20;1.00
774;DHT22;370;48.810;9.150;2022-07-29T10:59:48;27.10;1.00
774;DHT22;370;48.810;9.150;2022-07-29T11:02:41;26.90;1.00
774;DHT22;370;48.810;9.150;2022-07-29T11:05:09;26.60;1.00
774;DHT22;370;48.810;9.150;2022-07-29T11:07:38;26.50;1.00
774;DHT22;370;48.810;9.150;2022-07-29T11:10:24;26.50;1.00
774;DHT22;370;48.810;9.150;2022-07-29T11:12:52;26.40;1.00
774;DHT22;370;48.810;9.150;2022-07-29T11:15:20;26.30;1.00
774;DHT22;370;48.810;9.150;2022-07-29T11:18:04;26.40;1.00
774;DHT22;370;48.810;9.150;2022-07-29T11:20:39;26.30;1.00
774;DHT22;370;48.810;9.150;2022-07-29T11:23:21;25.90;1.00
774;DHT22;370;48.810;9.150;2022-07-29T11:26:14;25.20;1.00
774;DHT22;370;48.810;9.150;2022-07-29T11:28:53;24.40;4.00
774;DHT22;370;48.810;9.150;2022-07-29T11:31:33;24.00;8.50
774;DHT22;370;48.810;9.150;2022-07-29T11:34:18;23.40;10.10
774;DHT22;370;48.810;9.150;2022-07-29T11:37:22;23.70;10.00
774;DHT22;370;48.810;9.150;2022-07-29T11:40:16;23.90;8.60
774;DHT22;370;48.810;9.150;2022-07-29T11:42:46;24.00;6.40
774;DHT22;370;48.810;9.150;2022-07-29T11:45:19;24.00;6.10
774;DHT22;370;48.810;9.150;2022-07-29T11:47:52;24.10;5.60
774;DHT22;370;48.810;9.150;2022-07-29T11:50:34;23.60;7.30
774;DHT22;370;48.810;9.150;2022-07-29T11:53:03;23.20;11.00
774;DHT22;370;48.810;9.150;2022-07-29T11:55:37;23.10;13.90
774;DHT22;370;48.810;9.150;2022-07-29T11:58:05;23.20;12.70
774;DHT22;370;48.810;9.150;2022-07-29T12:00:35;23.00;13.50
774;DHT22;370;48.810;9.150;2022-07-29T12:03:05;23.00;12.50
774;DHT22;370;48.810;9.150;2022-07-29T12:05:35;22.90;12.20
774;DHT22;370;48.810;9.150;2022-07-29T12:08:15;23.10;9.40
774;DHT22;370;48.810;9.150;2022-07-29T12:10:44;23.30;10.30
774;DHT22;370;48.810;9.150;2022-07-29T12:13:12;23.50;9.30
774;DHT22;370;48.810;9.150;2022-07-29T12:15:41;23.60;9.20
774;DHT22;370;48.810;9.150;2022-07-29T12:18:10;23.70;10.30
774;DHT22;370;48.810;9.150;2022-07-29T12:20:37;24.20;8.40
774;DHT22;370;48.810;9.150;2022-07-29T12:23:08;24.80;6.00
774;DHT22;370;48.810;9.150;2022-07-29T12:25:37;24.80;6.00
774;DHT22;370;48.810;9.150;2022-07-29T12:28:10;24.40;6.80
774;DHT22;370;48.810;9.150;2022-07-29T12:30:45;24.20;5.60
774;DHT22;370;48.810;9.150;2022-07-29T12:33:16;24.10;4.60
774;DHT22;370;48.810;9.150;2022-07-29T12:35:45;23.90;4.50
774;DHT22;370;48.810;9.150;2022-07-29T12:38:13;23.60;2.90
774;DHT22;370;48.810;9.150;2022-07-29T12:40:40;23.60;4.20
774;DHT22;370;48.810;9.150;2022-07-29T12:43:09;23.50;3.00
774;DHT22;370;48.810;9.150;2022-07-29T12:45:37;23.20;5.20
774;DHT22;370;48.810;9.150;2022-07-29T12:48:06;23.10;5.60
774;DHT22;370;48.810;9.150;2022-07-29T12:50:35;23.10;6.40
774;DHT22;370;48.810;9.150;2022-07-29T12:53:09;23.00;7.40
774;DHT22;370;48.810;9.150;2022-07-29T12:55:41;22.90;7.60
774;DHT22;370;48.810;9.150;2022-07-29T12:58:08;23.00;7.50
774;DHT22;370;48.810;9.150;2022-07-29T13:00:35;22.90;7.20
774;DHT22;370;48.810;9.150;2022-07-29T13:03:02;22.80;7.90
774;DHT22;370;48.810;9.150;2022-07-29T13:05:41;22.80;9.10
774;DHT22;370;48.810;9.150;2022-07-29T13:08:12;22.70;11.10
774;DHT22;370;48.810;9.150;2022-07-29T13:10:40;22.70;10.60
774;DHT22;370;48.810;9.150;2022-07-29T13:13:09;22.80;9.10
774;DHT22;370;48.810;9.150;2022-07-29T13:15:37;23.00;7.80
774;DHT22;370;48.810;9.150;2022-07-29T13:18:05;23.00;6.50
774;DHT22;370;48.810;9.150;2022-07-29T13:20:32;23.00;6.60
774;DHT22;370;48.810;9.150;2022-07-29T13:23:00;23.00;7.90
774;DHT22;370;48.810;9.150;2022-07-29T13:25:28;22.90;9.30
774;DHT22;370;48.810;9.150;2022-07-29T13:27:56;22.90;11.80
774;DHT22;370;48.810;9.150;2022-07-29T13:30:23;22.70;16.50
774;DHT22;370;48.810;9.150;2022-07-29T13:32:51;22.40;19.60
774;DHT22;370;48.810;9.150;2022-07-29T13:35:18;21.90;21.90
774;DHT22;370;48.810;9.150;2022-07-29T13:37:46;21.80;24.10
774;DHT22;370;48.810;9.150;2022-07-29T13:40:14;21.70;21.80
774;DHT22;370;48.810;9.150;2022-07-29T13:42:42;21.70;23.20
774;DHT22;370;48.810;9.150;2022-07-29T13:45:09;21.70;23.80
774;DHT22;370;48.810;9.150;2022-07-29T13:47:37;21.70;23.20
774;DHT22;370;48.810;9.150;2022-07-29T13:50:05;21.70;22.30
774;DHT22;370;48.810;9.150;2022-07-29T13:52:32;22.10;20.30
774;DHT22;370;48.810;9.150;2022-07-29T13:54:59;22.40;18.10
774;DHT22;370;48.810;9.150;2022-07-29T13:57:28;22.70;17.90
774;DHT22;370;48.810;9.150;2022-07-29T13:59:55;23.10;15.90
774;DHT22;370;48.810;9.150;2022-07-29T14:02:22;23.60;13.70
774;DHT22;370;48.810;9.150;2022-07-29T14:04:49;24.20;11.40
774;DHT22;370;48.810;9.150;2022-07-29T14:07:16;24.50;8.90
774;DHT22;370;48.810;9.150;2022-07-29T14:09:42;24.50;7.50
774;DHT22;370;48.810;9.150;2022-07-29T14:12:09;24.70;5.90
774;DHT22;370;48.810;9.150;2022-07-29T14:14:38;25.00;6.10
774;DHT22;370;48.810;9.150;2022-07-29T14:17:05;25.10;6.30
774;DHT22;370;48.810;9.150;2022-07-29T14:19:32;25.20;3.80
774;DHT22;370;48.810;9.150;2022-07-29T14:22:02;25.50;2.80
774;DHT22;370;48.810;9.150;2022-07-29T14:24:29;25.50;2.60
774;DHT22;370;48.810;9.150;2022-07-29T14:26:57;25.20;3.30
774;DHT22;370;48.810;9.150;2022-07-29T14:29:23;25.10;3.10
774;DHT22;370;48.810;9.150;2022-07-29T14:31:52;24.90;3.00
774;DHT22;370;48.810;9.150;2022-07-29T14:34:18;24.60;3.10
774;DHT22;370;48.810;9.150;2022-07-29T14:36:45;24.60;3.70
774;DHT22;370;48.810;9.150;2022-07-29T14:39:12;24.90;3.60
774;DHT22;370;48.810;9.150;2022-07-29T14:41:41;25.40;2.70
774;DHT22;370;48.810;9.150;2022-07-29T14:44:08;25.80;1.00
774;DHT22;370;48.810;9.150;2022-07-29T14:46:35;26.10;1.00
774;DHT22;370;48.810;9.150;2022-07-29T14:49:03;26.50;1.00
774;DHT22;370;48.810;9.150;2022-07-29T14:51:31;26.80;1.00
774;DHT22;370;48.810;9.150;2022-07-29T14:53:58;27.10;1.00
774;DHT22;370;48.810;9.150;2022-07-29T14:56:24;27.10;1.00
774;DHT22;370;48.810;9.150;2022-07-29T14:58:52;27.30;1.00
774;DHT22;370;48.810;9.150;2022-07-29T15:01:19;27.30;1.00
774;DHT22;370;48.810;9.150;2022-07-29T15:03:45;27.30;1.00
774;DHT22;370;48.810;9.150;2022-07-29T15:06:14;27.20;1.00
774;DHT22;370;48.810;9.150;2022-07-29T15:08:40;26.90;1.00
774;DHT22;370;48.810;9.150;2022-07-29T15:11:07;27.00;1.00
774;DHT22;370;48.810;9.150;2022-07-29T15:13:34;26.80;1.00
774;DHT22;370;48.810;9.150;2022-07-29T15:16:01;26.90;1.00
774;DHT22;370;48.810;9.150;2022-07-29T15:18:28;26.90;1.00
774;DHT22;370;48.810;9.150;2022-07-29T15:20:55;27.10;1.00
774;DHT22;370;48.810;9.150;2022-07-29T15:23:23;27.30;1.00
774;DHT22;370;48.810;9.150;2022-07-29T15:25:50;27.30;1.00
774;DHT22;370;48.810;9.150;2022-07-29T15:28:16;27.10;1.00
774;DHT22;370;48.810;9.150;2022-07-29T15:30:43;27.20;1.00
774;DHT22;370;48.810;9.150;2022-07-29T15:33:10;27.20;1.00
774;DHT22;370;48.810;9.150;2022-07-29T15:35:37;27.30;1.00
774;DHT22;370;48.810;9.150;2022-07-29T15:38:04;27.50;1.00
774;DHT22;370;48.810;9.150;2022-07-29T15:40:32;27.50;1.00
774;DHT22;370;48.810;9.150;2022-07-29T15:43:03;27.70;1.00
774;DHT22;370;48.810;9.150;2022-07-29T15:45:35;27.70;1.00
774;DHT22;370;48.810;9.150;2022-07-29T15:48:04;27.60;1.00
774;DHT22;370;48.810;9.150;2022-07-29T15:50:31;27.60;1.00
774;DHT22;370;48.810;9.150;2022-07-29T15:52:58;27.80;1.00
774;DHT22;370;48.810;9.150;2022-07-29T15:55:25;27.90;1.00
774;DHT22;370;48.810;9.150;2022-07-29T15:57:53;28.00;1.00
774;DHT22;370;48.810;9.150;2022-07-29T16:00:20;27.80;1.00
774;DHT22;370;48.810;9.150;2022-07-29T16:02:49;27.80;1.00
774;DHT22;370;48.810;9.150;2022-07-29T16:05:15;28.00;1.00
774;DHT22;370;48.810;9.150;2022-07-29T16:07:42;27.70;1.00
774;DHT22;370;48.810;9.150;2022-07-29T16:10:09;27.70;1.00
774;DHT22;370;48.810;9.150;2022-07-29T16:12:36;27.70;1.00
774;DHT22;370;48.810;9.150;2022-07-29T16:15:05;27.60;1.00
774;DHT22;370;48.810;9.150;2022-07-29T16:17:33;27.60;1.00
774;DHT22;370;48.810;9.150;2022-07-29T16:20:00;27.50;1.00
774;DHT22;370;48.810;9.150;2022-07-29T16:22:27;27.60;1.00
774;DHT22;370;48.810;9.150;2022-07-29T16:24:55;27.40;1.00
774;DHT22;370;48.810;9.150;2022-07-29T16:27:21;27.40;1.00
774;DHT22;370;48.810;9.150;2022-07-29T16:29:51;27.00;1.00
774;DHT22;370;48.810;9.150;2022-07-29T16:32:19;27.30;1.00
774;DHT22;370;48.810;9.150;2022-07-29T16:34:46;27.40;1.00
774;DHT22;370;48.810;9.150;2022-07-29T16:37:13;27.30;1.00
774;DHT22;370;48.810;9.150;2022-07-29T16:39:40;27.30;1.00
774;DHT22;370;48.810;9.150;2022-07-29T16:42:07;27.50;1.00
774;DHT22;370;48.810;9.150;2022-07-29T16:44:33;27.40;1.00
774;DHT22;370;48.810;9.150;2022-07-29T16:47:00;27.40;1.00
774;DHT22;370;48.810;9.150;2022-07-29T16:49:29;27.40;1.00
774;DHT22;370;48.810;9.150;2022-07-29T16:51:56;27.20;1.00
774;DHT22;370;48.810;9.150;2022-07-29T16:54:22;27.00;1.00
774;DHT22;370;48.810;9.150;2022-07-29T16:56:49;26.70;1.00
774;DHT22;370;48.810;9.150;2022-07-29T16:59:16;26.60;1.00